Time;durP1;ratioP1;P1;durP2;ratioP2;P2;SDS_P1;SDS_P2;PMS_P1;PMS_P2;Temp;Humidity;BMP_temperature;BMP_pressure;BME280_temperature;BME280_humidity;BME280_pressure;Samples;Min_cycle;Max_cycle;Signal;HPM_P1;HPM_P2
2022/03/05 00:01:16;;;;;;;8.55;5.90;;;-0.60;99.90;;;;;;5071193;28;20052;-69
2022/03/05 00:03:43;;;;;;;9.40;5.15;;;-0.60;99.90;;;;;;5071378;28;20053;-68
2022/03/05 00:06:10;;;;;;;12.73;5.65;;;-0.60;99.90;;;;;;5071104;28;20147;-69
2022/03/05 00:08:37;;;;;;;10.07;6.38;;;-0.60;99.90;;;;;;5071832;28;20135;-67
2022/03/05 00:11:05;;;;;;;8.85;5.47;;;-0.70;99.90;;;;;;5071785;28;20167;-69
2022/03/05 00:13:32;;;;;;;12.70;5.43;;;-0.60;99.90;;;;;;5070737;28;20145;-68
2022/03/05 00:15:59;;;;;;;10.43;5.70;;;-0.60;99.90;;;;;;5071437;28;20499;-69
2022/03/05 00:18:27;;;;;;;9.63;5.68;;;-0.60;99.90;;;;;;5071710;28;20471;-69
2022/03/05 00:20:54;;;;;;;10.63;5.57;;;-0.70;99.90;;;;;;5072072;28;20064;-69
2022/03/05 00:23:24;;;;;;;7.93;5.47;;;-0.60;99.90;;;;;;5071322;28;20126;-69
2022/03/05 00:25:51;;;;;;;10.63;5.43;;;-0.70;99.90;;;;;;5071155;28;20299;-69
2022/03/05 00:28:21;;;;;;;10.05;5.60;;;-0.70;99.90;;;;;;5070397;28;20045;-68
2022/03/05 00:30:48;;;;;;;9.63;5.28;;;-0.70;99.90;;;;;;5071364;28;20131;-69
2022/03/05 00:33:15;;;;;;;10.68;5.15;;;-0.60;99.90;;;;;;5070972;28;20139;-68
2022/03/05 00:35:42;;;;;;;10.40;6.15;;;-0.70;99.90;;;;;;5070324;28;20049;-68
2022/03/05 00:38:09;;;;;;;11.10;5.85;;;-0.70;99.90;;;;;;5071087;28;20421;-68
2022/03/05 00:40:36;;;;;;;8.73;5.20;;;-0.70;99.90;;;;;;5071115;28;20044;-68
2022/03/05 00:43:03;;;;;;;10.63;6.00;;;-0.70;99.90;;;;;;5069880;28;20135;-68
2022/03/05 00:45:31;;;;;;;12.35;5.63;;;-0.70;99.90;;;;;;5070753;28;20075;-70
2022/03/05 00:47:57;;;;;;;10.52;5.75;;;-0.80;99.90;;;;;;5070619;28;20049;-70
2022/03/05 00:50:24;;;;;;;10.73;6.03;;;-0.80;99.90;;;;;;5070218;28;20078;-69
2022/03/05 00:52:51;;;;;;;11.07;6.22;;;-0.80;99.90;;;;;;5070801;28;20095;-69
2022/03/05 00:55:18;;;;;;;8.30;5.30;;;-0.80;99.90;;;;;;5070569;28;20045;-69
2022/03/05 00:57:45;;;;;;;10.25;5.72;;;-0.80;99.90;;;;;;5070608;28;20131;-68
2022/03/05 01:00:12;;;;;;;10.85;5.70;;;-0.90;99.90;;;;;;5070813;28;20106;-67
2022/03/05 01:02:41;;;;;;;11.93;6.00;;;-0.80;99.90;;;;;;5071128;28;20099;-67
2022/03/05 01:05:09;;;;;;;9.85;6.32;;;-0.80;99.90;;;;;;5070536;28;20149;-69
2022/03/05 01:07:36;;;;;;;10.70;5.68;;;-0.90;99.90;;;;;;5070590;28;20540;-68
2022/03/05 01:10:04;;;;;;;10.48;5.88;;;-0.90;99.90;;;;;;5069775;28;20496;-69
2022/03/05 01:12:30;;;;;;;11.00;6.28;;;-0.90;99.90;;;;;;5070111;28;20133;-70
2022/03/05 01:14:57;;;;;;;10.35;6.63;;;-0.90;99.90;;;;;;5070585;28;20438;-69
2022/03/05 01:17:24;;;;;;;10.38;6.38;;;-0.90;99.90;;;;;;5070126;28;20438;-69
2022/03/05 01:19:53;;;;;;;11.88;6.35;;;-0.90;99.90;;;;;;5070293;28;20106;-69
2022/03/05 01:22:19;;;;;;;9.55;6.03;;;-1.00;99.90;;;;;;5069961;28;20091;-69
2022/03/05 01:24:46;;;;;;;10.68;6.65;;;-0.90;99.90;;;;;;5070036;28;20406;-69
2022/03/05 01:27:13;;;;;;;11.48;6.38;;;-0.90;99.90;;;;;;5070094;28;20102;-70
2022/03/05 01:29:40;;;;;;;10.82;6.03;;;-1.00;99.90;;;;;;5070487;28;20091;-69
2022/03/05 01:32:08;;;;;;;14.88;6.75;;;-0.90;99.90;;;;;;5069309;28;20048;-68
2022/03/05 01:34:35;;;;;;;11.63;6.13;;;-1.00;99.90;;;;;;5069643;28;20562;-68
2022/03/05 01:37:03;;;;;;;12.18;6.97;;;-1.00;99.90;;;;;;5070307;28;20106;-69
2022/03/05 01:39:30;;;;;;;9.80;6.22;;;-1.00;99.90;;;;;;5069866;28;20080;-68
2022/03/05 01:41:57;;;;;;;9.38;6.32;;;-1.00;99.90;;;;;;5071387;28;20471;-67
2022/03/05 01:44:25;;;;;;;12.73;7.32;;;-1.00;99.90;;;;;;5070105;28;20125;-70
2022/03/05 01:46:52;;;;;;;12.85;7.00;;;-1.00;99.90;;;;;;5071920;28;20049;-70
2022/03/05 01:49:19;;;;;;;13.73;7.40;;;-1.00;99.90;;;;;;5076402;28;20044;-69
2022/03/05 01:51:46;;;;;;;12.00;6.95;;;-0.90;99.90;;;;;;5076111;28;20113;-69
2022/03/05 01:54:15;;;;;;;10.18;6.45;;;-1.00;99.90;;;;;;5077943;28;20076;-68
2022/03/05 01:56:44;;;;;;;12.15;6.70;;;-1.00;99.90;;;;;;5077912;28;20063;-68
2022/03/05 01:59:12;;;;;;;11.65;6.85;;;-0.90;99.90;;;;;;5075833;28;20064;-68
2022/03/05 02:01:39;;;;;;;12.60;6.80;;;-0.90;99.90;;;;;;5076617;28;20056;-68
2022/03/05 02:04:06;;;;;;;11.70;6.68;;;-0.90;99.90;;;;;;5076245;28;20084;-68
2022/03/05 02:06:34;;;;;;;12.23;7.43;;;-1.00;99.90;;;;;;5075826;28;20131;-68
2022/03/05 02:09:01;;;;;;;12.45;7.13;;;-1.00;99.90;;;;;;5076389;28;20048;-68
2022/03/05 02:11:29;;;;;;;10.35;6.30;;;-1.00;99.90;;;;;;5077984;28;20107;-68
2022/03/05 02:13:56;;;;;;;13.70;6.70;;;-1.00;99.90;;;;;;5075198;28;20139;-68
2022/03/05 02:16:24;;;;;;;12.38;7.30;;;-1.00;99.90;;;;;;5076686;28;20074;-68
2022/03/05 02:18:56;;;;;;;13.05;7.22;;;-1.00;99.90;;;;;;5077460;28;20513;-70
2022/03/05 02:21:25;;;;;;;10.15;6.60;;;-1.10;99.90;;;;;;5076020;28;20057;-68
2022/03/05 02:23:52;;;;;;;9.52;5.85;;;-1.00;99.90;;;;;;5076456;28;20187;-69
2022/03/05 02:26:22;;;;;;;11.13;6.50;;;-1.00;99.90;;;;;;5077236;28;20080;-69
2022/03/05 02:28:49;;;;;;;11.48;6.85;;;-1.00;99.90;;;;;;5075933;28;20496;-68
2022/03/05 02:31:16;;;;;;;11.77;6.55;;;-1.00;99.90;;;;;;5076856;28;20117;-69
2022/03/05 02:33:43;;;;;;;10.15;6.30;;;-1.00;99.90;;;;;;5074988;28;20091;-68
2022/03/05 02:36:10;;;;;;;12.45;6.38;;;-1.10;99.90;;;;;;5076490;28;20447;-68
2022/03/05 02:38:38;;;;;;;11.77;6.07;;;-0.70;99.90;;;;;;5076776;28;20468;-68
2022/03/05 02:41:06;;;;;;;9.45;5.97;;;-1.10;99.90;;;;;;5076574;28;20076;-69
2022/03/05 02:43:33;;;;;;;13.30;5.95;;;-1.10;99.90;;;;;;5075829;28;20107;-69
2022/03/05 02:46:00;;;;;;;11.00;6.28;;;-1.10;99.90;;;;;;5076047;28;20083;-69
2022/03/05 02:48:27;;;;;;;10.75;6.45;;;-1.10;99.90;;;;;;5075096;28;20526;-70
2022/03/05 02:50:54;;;;;;;12.50;6.30;;;-1.10;99.90;;;;;;5076544;28;20095;-70
2022/03/05 02:53:21;;;;;;;10.82;6.10;;;-1.20;99.90;;;;;;5077297;28;20483;-70
2022/03/05 02:55:49;;;;;;;10.43;6.03;;;-1.10;99.90;;;;;;5076814;28;20052;-70
2022/03/05 02:58:16;;;;;;;11.27;6.03;;;-1.20;99.90;;;;;;5074496;28;20456;-70
2022/03/05 03:00:43;;;;;;;10.90;5.72;;;-1.20;99.90;;;;;;5072354;28;20302;-69
2022/03/05 03:03:10;;;;;;;12.38;5.75;;;-1.20;99.90;;;;;;5071972;28;20049;-70
2022/03/05 03:05:37;;;;;;;11.55;7.05;;;-1.30;99.90;;;;;;5072718;28;20044;-69
2022/03/05 03:08:04;;;;;;;11.95;6.05;;;-1.20;99.90;;;;;;5072911;28;20087;-68
2022/03/05 03:10:32;;;;;;;11.93;6.60;;;-1.30;99.90;;;;;;5072203;28;20377;-70
2022/03/05 03:13:00;;;;;;;9.63;5.70;;;-1.20;99.90;;;;;;5072643;28;20060;-67
2022/03/05 03:15:27;;;;;;;9.32;5.50;;;-1.30;99.90;;;;;;5072481;28;20075;-69
2022/03/05 03:17:54;;;;;;;11.45;5.65;;;-1.30;99.90;;;;;;5071814;28;20139;-69
2022/03/05 03:20:23;;;;;;;12.20;6.30;;;-1.30;99.90;;;;;;5072630;28;20510;-69
2022/03/05 03:22:51;;;;;;;10.85;6.22;;;-1.30;99.90;;;;;;5072277;28;20131;-69
2022/03/05 03:25:18;;;;;;;9.05;5.55;;;-1.30;99.90;;;;;;5072524;28;20048;-68
2022/03/05 03:27:44;;;;;;;8.02;5.47;;;-1.30;99.90;;;;;;5073558;28;20084;-69
2022/03/05 03:30:14;;;;;;;9.20;6.03;;;-1.10;99.90;;;;;;5071839;28;20056;-69
2022/03/05 03:32:42;;;;;;;8.18;5.35;;;-1.30;99.90;;;;;;5072204;28;20049;-70
2022/03/05 03:35:10;;;;;;;11.25;6.10;;;-1.40;99.90;;;;;;5052330;28;20103;-70
2022/03/05 03:37:37;;;;;;;8.23;5.20;;;-1.40;99.90;;;;;;5051854;28;20433;-69
2022/03/05 03:40:06;;;;;;;8.07;5.28;;;-1.40;99.90;;;;;;5052205;28;20130;-69
2022/03/05 03:42:33;;;;;;;10.18;5.75;;;-1.40;99.90;;;;;;5053214;28;20080;-69
2022/03/05 03:45:00;;;;;;;12.25;6.03;;;-1.50;99.90;;;;;;5071458;28;20091;-68
2022/03/05 03:47:28;;;;;;;13.30;5.95;;;-1.50;99.90;;;;;;5072572;28;20477;-69
2022/03/05 03:49:55;;;;;;;11.57;6.00;;;-1.50;99.90;;;;;;5072043;28;20102;-70
2022/03/05 03:52:22;;;;;;;11.55;6.85;;;-1.60;99.90;;;;;;5071614;28;20057;-70
2022/03/05 03:54:53;;;;;;;10.93;6.47;;;-1.60;99.90;;;;;;5071885;28;20088;-70
2022/03/05 03:57:19;;;;;;;9.95;5.82;;;-1.60;99.90;;;;;;5071963;28;20080;-70
2022/03/05 03:59:47;;;;;;;9.68;5.43;;;-1.60;99.90;;;;;;5071516;28;20105;-69
2022/03/05 04:02:14;;;;;;;11.23;6.05;;;-1.60;99.90;;;;;;5071763;28;20374;-70
2022/03/05 04:04:42;;;;;;;11.90;6.38;;;-1.60;99.90;;;;;;5072797;28;20106;-70
2022/03/05 04:09:54;;;;;;;9.40;5.65;;;-1.60;99.90;;;;;;5071210;28;20055;-70
2022/03/05 04:12:21;;;;;;;11.00;6.65;;;-1.60;99.90;;;;;;5071128;28;20094;-71
2022/03/05 04:14:48;;;;;;;12.25;6.60;;;-1.60;99.90;;;;;;5071758;28;20102;-70
2022/03/05 04:17:15;;;;;;;11.52;6.10;;;-1.70;99.90;;;;;;5072697;28;20136;-70
2022/03/05 04:19:43;;;;;;;11.00;6.40;;;-1.70;99.90;;;;;;5070667;28;20415;-69
2022/03/05 04:22:10;;;;;;;11.15;5.93;;;-1.70;99.90;;;;;;5071120;28;20570;-71
2022/03/05 04:24:37;;;;;;;12.20;6.50;;;-1.70;99.90;;;;;;5071642;28;20048;-70
2022/03/05 04:27:05;;;;;;;13.02;5.97;;;-1.70;99.90;;;;;;5071956;28;20048;-69
2022/03/05 04:29:31;;;;;;;11.52;6.70;;;-1.70;99.90;;;;;;5071345;28;20053;-69
2022/03/05 04:31:58;;;;;;;17.30;6.65;;;-1.70;99.90;;;;;;5070883;28;20052;-69
2022/03/05 04:34:25;;;;;;;9.75;6.18;;;-1.70;99.90;;;;;;5071636;28;20060;-69
2022/03/05 04:36:53;;;;;;;11.18;6.80;;;-1.80;99.90;;;;;;5072494;28;20114;-70
2022/03/05 04:39:23;;;;;;;10.30;6.50;;;-1.80;99.90;;;;;;5070733;28;20049;-70
2022/03/05 04:41:53;;;;;;;11.20;6.20;;;-1.70;99.90;;;;;;5070527;28;20461;-69
2022/03/05 04:44:20;;;;;;;11.15;6.18;;;-1.70;99.90;;;;;;5072145;28;20290;-70
2022/03/05 04:46:46;;;;;;;12.90;5.80;;;-1.70;99.90;;;;;;5070796;28;20051;-68
2022/03/05 04:49:13;;;;;;;9.75;5.88;;;-1.70;99.90;;;;;;5069744;28;20056;-68
2022/03/05 04:51:40;;;;;;;9.07;5.70;;;-1.70;99.90;;;;;;5070680;28;20458;-69
2022/03/05 04:54:08;;;;;;;8.23;5.45;;;-1.70;99.90;;;;;;5070198;28;20106;-69
2022/03/05 04:56:36;;;;;;;9.65;5.75;;;-1.70;99.90;;;;;;5069727;28;20056;-70
2022/03/05 04:59:03;;;;;;;10.30;5.80;;;-1.80;99.90;;;;;;5070659;28;20058;-69
2022/03/05 05:01:30;;;;;;;11.55;5.63;;;-1.80;99.90;;;;;;5069887;28;20099;-70
2022/03/05 05:03:57;;;;;;;8.77;5.82;;;-1.80;99.90;;;;;;5070750;28;20044;-69
2022/03/05 05:06:25;;;;;;;11.82;6.03;;;-1.80;99.90;;;;;;5070125;28;20055;-67
2022/03/05 05:08:52;;;;;;;11.32;7.25;;;-1.80;99.90;;;;;;5070064;28;20393;-67
2022/03/05 05:11:21;;;;;;;10.60;5.65;;;-1.80;99.90;;;;;;5070480;28;20045;-67
2022/03/05 05:13:48;;;;;;;8.77;5.55;;;-1.90;99.90;;;;;;5071457;28;20052;-67
2022/03/05 05:16:15;;;;;;;14.25;5.72;;;-1.90;99.90;;;;;;5069507;28;20140;-68
2022/03/05 05:19:24;;;;;;;10.20;6.30;;;-1.90;99.90;;;;;;5070388;28;20106;-68
2022/03/05 05:21:30;;;;;;;9.65;5.88;;;-1.90;99.90;;;;;;5069190;28;20060;-67
2022/03/05 05:23:57;;;;;;;14.60;6.30;;;-1.90;99.90;;;;;;5069809;28;20400;-68
2022/03/05 05:26:26;;;;;;;9.40;5.28;;;-2.00;99.90;;;;;;5070079;28;20098;-68
2022/03/05 05:28:53;;;;;;;10.18;5.97;;;-2.00;99.90;;;;;;5070133;28;20082;-67
2022/03/05 05:31:20;;;;;;;10.05;5.95;;;-2.00;99.90;;;;;;5070450;28;20071;-67
2022/03/05 05:33:46;;;;;;;9.85;5.25;;;-2.00;99.90;;;;;;5070001;28;20052;-67
2022/03/05 05:36:15;;;;;;;11.30;5.90;;;-2.00;99.90;;;;;;5069865;28;20045;-67
2022/03/05 05:38:42;;;;;;;10.52;5.47;;;-2.00;99.90;;;;;;5069929;28;20531;-68
2022/03/05 05:41:09;;;;;;;11.07;6.13;;;-2.00;99.90;;;;;;5063767;28;20053;-67
2022/03/05 05:43:40;;;;;;;10.85;5.78;;;-2.00;99.90;;;;;;5056649;28;20266;-68
2022/03/05 05:46:07;;;;;;;10.52;6.10;;;-2.00;99.90;;;;;;5050889;28;20124;-66
2022/03/05 05:48:33;;;;;;;10.25;6.07;;;-1.90;99.90;;;;;;5058598;28;20141;-67
2022/03/05 05:51:00;;;;;;;9.95;5.75;;;-2.00;99.90;;;;;;5062737;28;20064;-67
2022/03/05 05:53:27;;;;;;;10.55;5.88;;;-1.90;99.90;;;;;;5063330;28;20114;-68
2022/03/05 05:55:54;;;;;;;10.30;5.22;;;-1.90;99.90;;;;;;5065261;28;20076;-67
2022/03/05 05:58:21;;;;;;;10.25;5.90;;;-1.90;99.90;;;;;;5062769;28;20096;-69
2022/03/05 06:00:50;;;;;;;10.73;6.30;;;-2.00;99.90;;;;;;5063696;28;20053;-68
2022/03/05 06:03:17;;;;;;;10.73;5.80;;;-2.00;99.90;;;;;;5066032;28;20054;-68
2022/03/05 06:05:44;;;;;;;13.15;6.20;;;-2.00;99.90;;;;;;5063222;28;20519;-68
2022/03/05 06:08:10;;;;;;;8.32;5.20;;;-2.00;99.90;;;;;;5067030;28;20048;-69
2022/03/05 06:10:37;;;;;;;12.50;6.13;;;-2.10;99.90;;;;;;5064356;28;20095;-69
2022/03/05 06:13:04;;;;;;;9.15;5.93;;;-2.10;99.90;;;;;;5063643;28;20102;-67
2022/03/05 06:15:31;;;;;;;8.70;5.07;;;-2.10;99.90;;;;;;5064799;28;20086;-68
2022/03/05 06:17:59;;;;;;;11.90;6.93;;;-2.00;99.90;;;;;;5062438;28;20131;-67
2022/03/05 06:20:26;;;;;;;10.27;6.10;;;-2.00;99.90;;;;;;5062948;28;20045;-67
2022/03/05 06:22:53;;;;;;;10.00;5.78;;;-2.00;99.90;;;;;;5061616;28;20484;-68
2022/03/05 06:25:20;;;;;;;12.23;6.25;;;-2.00;99.90;;;;;;5060772;28;20083;-67
2022/03/05 06:27:47;;;;;;;9.13;5.80;;;-1.90;99.90;;;;;;5051314;28;20166;-66
2022/03/05 06:30:14;;;;;;;10.50;6.15;;;-1.80;99.90;;;;;;5060130;28;20440;-66
2022/03/05 06:32:42;;;;;;;10.43;5.90;;;-1.80;99.90;;;;;;5061156;28;20124;-67
2022/03/05 06:35:11;;;;;;;11.07;6.18;;;-1.80;99.90;;;;;;5068346;28;20086;-68
2022/03/05 06:37:38;;;;;;;11.77;5.88;;;-1.70;99.90;;;;;;5066980;28;20127;-68
2022/03/05 06:40:07;;;;;;;8.43;5.75;;;-1.70;99.90;;;;;;5066483;28;20131;-67
2022/03/05 06:42:34;;;;;;;10.50;6.35;;;-1.60;99.90;;;;;;5064316;28;20499;-67
2022/03/05 06:45:01;;;;;;;11.65;6.65;;;-1.60;99.90;;;;;;5067032;28;20068;-68
2022/03/05 06:47:30;;;;;;;10.07;5.97;;;-1.60;99.90;;;;;;5063369;28;20080;-68
2022/03/05 06:49:57;;;;;;;10.63;5.88;;;-1.50;99.90;;;;;;5065392;28;20071;-67
2022/03/05 06:52:25;;;;;;;11.00;5.55;;;-1.40;99.90;;;;;;5064613;28;20080;-68
2022/03/05 06:54:52;;;;;;;11.30;6.53;;;-1.40;99.90;;;;;;5063499;28;20076;-67
2022/03/05 06:57:18;;;;;;;9.50;6.03;;;-1.30;99.90;;;;;;5069415;28;20041;-67
2022/03/05 06:59:48;;;;;;;9.57;6.93;;;-1.20;99.90;;;;;;5063820;28;20056;-67
2022/03/05 07:02:15;;;;;;;11.02;6.47;;;-1.20;99.90;;;;;;5063774;28;20106;-68
2022/03/05 07:04:42;;;;;;;10.80;6.38;;;-1.10;99.90;;;;;;5062750;28;20076;-66
2022/03/05 07:07:09;;;;;;;8.98;5.85;;;-1.10;99.90;;;;;;5061552;28;20084;-66
2022/03/05 07:09:37;;;;;;;12.45;6.53;;;-1.00;99.90;;;;;;5063676;28;20138;-67
2022/03/05 07:12:05;;;;;;;11.73;6.72;;;-1.00;99.90;;;;;;5068137;28;20048;-67
2022/03/05 07:14:32;;;;;;;9.30;6.28;;;-0.90;99.90;;;;;;5064995;28;20090;-67
2022/03/05 07:16:59;;;;;;;8.68;5.50;;;-0.80;99.90;;;;;;5064380;28;20048;-68
2022/03/05 07:19:26;;;;;;;10.70;6.15;;;-0.50;99.90;;;;;;5063396;28;20127;-66
2022/03/05 07:21:53;;;;;;;13.55;7.05;;;0.30;99.90;;;;;;5063537;28;20139;-67
2022/03/05 07:24:20;;;;;;;10.80;5.70;;;1.40;99.90;;;;;;5064303;28;20385;-67
2022/03/05 07:26:48;;;;;;;11.30;6.30;;;2.00;99.90;;;;;;5068169;28;20048;-66
2022/03/05 07:29:15;;;;;;;12.70;6.50;;;2.00;99.90;;;;;;5063778;28;20546;-68
2022/03/05 07:31:41;;;;;;;10.95;6.20;;;1.80;99.90;;;;;;5062232;28;20174;-67
2022/03/05 07:34:08;;;;;;;10.55;5.72;;;2.50;99.90;;;;;;5063237;28;20068;-68
2022/03/05 07:36:35;;;;;;;11.43;7.28;;;3.40;99.90;;;;;;5061735;28;20385;-67
2022/03/05 07:39:04;;;;;;;12.55;6.32;;;4.40;99.90;;;;;;5063414;28;20072;-67
2022/03/05 07:41:33;;;;;;;9.35;5.70;;;5.20;99.90;;;;;;5066549;28;20054;-68
2022/03/05 07:44:04;;;;;;;10.00;6.40;;;5.70;99.90;;;;;;5065120;28;20061;-67
2022/03/05 07:46:34;;;;;;;10.45;6.15;;;6.50;99.90;;;;;;5061988;28;20128;-68
2022/03/05 07:49:00;;;;;;;10.45;6.57;;;7.10;99.90;;;;;;5066358;28;20118;-68
2022/03/05 07:51:28;;;;;;;10.70;6.15;;;7.40;99.90;;;;;;5066491;28;20080;-68
2022/03/05 07:53:55;;;;;;;11.65;6.95;;;7.70;99.90;;;;;;5064438;28;20135;-69
2022/03/05 07:56:22;;;;;;;9.82;6.45;;;8.00;99.30;;;;;;5064167;28;20106;-68
2022/03/05 07:58:49;;;;;;;10.93;6.88;;;8.20;99.90;;;;;;5066610;28;20110;-68
2022/03/05 08:01:23;;;;;;;10.05;7.07;;;8.20;98.70;;;;;;5056107;28;20114;-66
2022/03/05 08:03:50;;;;;;;11.77;6.90;;;8.30;98.60;;;;;;5052912;28;20401;-68
2022/03/05 08:06:16;;;;;;;11.60;6.47;;;8.20;98.50;;;;;;5058760;28;20128;-67
2022/03/05 08:08:43;;;;;;;10.63;6.93;;;8.50;98.40;;;;;;5071948;28;20532;-68
2022/03/05 08:11:11;;;;;;;11.82;7.63;;;9.00;97.10;;;;;;5059358;28;20084;-69
2022/03/05 08:13:38;;;;;;;9.95;6.93;;;9.10;97.00;;;;;;5052787;28;20087;-68
2022/03/05 08:16:05;;;;;;;11.13;7.03;;;8.90;96.60;;;;;;5056916;28;20110;-68
2022/03/05 08:18:33;;;;;;;10.23;6.55;;;9.20;95.70;;;;;;5050176;28;20445;-69
2022/03/05 08:21:00;;;;;;;11.45;6.75;;;9.30;95.20;;;;;;5051137;28;20084;-65
2022/03/05 08:23:27;;;;;;;11.95;7.47;;;9.50;94.50;;;;;;5066066;28;20307;-65
2022/03/05 08:25:54;;;;;;;10.10;7.03;;;10.00;94.10;;;;;;5079553;28;20075;-65
2022/03/05 08:28:22;;;;;;;9.52;7.55;;;10.70;93.10;;;;;;5092124;28;20138;-65
2022/03/05 08:30:49;;;;;;;10.70;7.55;;;10.10;92.90;;;;;;5091530;28;20087;-65
2022/03/05 08:33:17;;;;;;;12.00;6.63;;;10.50;92.50;;;;;;5091893;28;20050;-65
2022/03/05 08:35:45;;;;;;;9.35;6.22;;;10.60;92.30;;;;;;5091326;28;20048;-66
2022/03/05 08:38:12;;;;;;;12.43;7.35;;;10.60;91.40;;;;;;5092306;28;20105;-65
2022/03/05 08:40:40;;;;;;;11.52;7.13;;;10.50;91.60;;;;;;5090909;28;20135;-65
2022/03/05 08:43:07;;;;;;;9.50;6.10;;;10.60;91.10;;;;;;5090875;28;20278;-65
2022/03/05 08:45:33;;;;;;;10.18;6.72;;;11.20;90.30;;;;;;5092428;28;20480;-66
2022/03/05 08:48:01;;;;;;;11.10;6.85;;;11.10;89.50;;;;;;5090369;28;20135;-65
2022/03/05 08:50:28;;;;;;;13.10;6.95;;;11.20;90.80;;;;;;5092189;28;20059;-65
2022/03/05 08:52:56;;;;;;;9.68;6.75;;;10.70;88.80;;;;;;5090927;28;20388;-65
2022/03/05 08:55:22;;;;;;;9.15;6.13;;;10.90;89.90;;;;;;5090558;28;20139;-67
2022/03/05 08:57:49;;;;;;;13.60;6.88;;;11.30;89.20;;;;;;5091082;28;20044;-65
2022/03/05 09:00:17;;;;;;;10.27;7.22;;;11.40;87.40;;;;;;5091068;28;20091;-65
2022/03/05 09:02:44;;;;;;;11.90;7.60;;;11.50;87.90;;;;;;5090103;28;20113;-65
2022/03/05 09:05:13;;;;;;;9.30;7.30;;;12.00;87.00;;;;;;5092008;28;20084;-65
2022/03/05 09:07:40;;;;;;;11.38;6.90;;;12.30;84.40;;;;;;5089884;28;20055;-66
2022/03/05 09:10:09;;;;;;;9.95;6.90;;;12.30;84.90;;;;;;5092196;28;20044;-66
2022/03/05 09:12:36;;;;;;;11.43;7.53;;;12.80;84.00;;;;;;5090953;28;20460;-65
2022/03/05 09:15:03;;;;;;;11.07;7.47;;;12.50;84.80;;;;;;5090089;28;20140;-65
2022/03/05 09:17:30;;;;;;;10.20;6.53;;;12.60;84.20;;;;;;5091692;28;20044;-65
2022/03/05 09:19:58;;;;;;;10.73;8.23;;;12.50;83.10;;;;;;5090756;28;20090;-65
2022/03/05 09:22:25;;;;;;;10.85;7.82;;;13.80;79.40;;;;;;5090243;28;20064;-64
2022/03/05 09:24:51;;;;;;;10.40;7.15;;;13.50;79.20;;;;;;5090656;28;20090;-66
2022/03/05 09:27:20;;;;;;;11.93;7.85;;;13.80;78.40;;;;;;5090313;28;20121;-65
2022/03/05 09:29:46;;;;;;;11.18;7.65;;;13.70;76.40;;;;;;5089806;28;20491;-65
2022/03/05 09:32:13;;;;;;;13.70;8.05;;;13.90;77.60;;;;;;5090507;28;20094;-65
2022/03/05 09:34:40;;;;;;;12.98;7.78;;;14.00;74.40;;;;;;5090355;28;20084;-65
2022/03/05 09:37:07;;;;;;;10.98;8.23;;;14.80;76.70;;;;;;5089844;28;20087;-65
2022/03/05 09:39:35;;;;;;;10.82;7.68;;;14.40;72.40;;;;;;5090641;28;20110;-65
2022/03/05 09:42:05;;;;;;;13.90;8.73;;;14.00;72.80;;;;;;5090649;28;20487;-65
2022/03/05 09:44:33;;;;;;;12.53;8.13;;;13.20;73.60;;;;;;5089774;28;20054;-66
2022/03/05 09:47:02;;;;;;;11.07;7.75;;;13.10;75.70;;;;;;5090210;28;20800;-65
2022/03/05 09:49:29;;;;;;;12.68;8.10;;;13.40;75.60;;;;;;5091600;28;20079;-67
2022/03/05 09:51:59;;;;;;;11.88;7.82;;;14.20;72.20;;;;;;5089610;28;20109;-66
2022/03/05 09:54:28;;;;;;;11.50;8.30;;;14.70;71.80;;;;;;5090392;28;20044;-65
2022/03/05 09:56:55;;;;;;;11.93;8.55;;;14.00;72.10;;;;;;5082424;28;20056;-65
2022/03/05 09:59:22;;;;;;;11.60;8.23;;;14.20;71.80;;;;;;5069851;28;20106;-66
2022/03/05 10:01:51;;;;;;;12.30;8.77;;;14.00;72.60;;;;;;5069750;28;20063;-66
2022/03/05 10:04:25;;;;;;;11.95;8.60;;;15.30;70.90;;;;;;5070379;28;20079;-65
2022/03/05 10:07:12;;;;;;;13.40;8.07;;;14.80;69.60;;;;;;5076711;28;20091;-66
2022/03/05 10:09:42;;;;;;;11.85;7.78;;;15.10;69.70;;;;;;5095024;28;20100;-65
2022/03/05 10:12:26;;;;;;;12.35;7.82;;;15.30;69.10;;;;;;5067960;28;20140;-66
2022/03/05 10:15:13;;;;;;;14.90;8.55;;;15.50;67.60;;;;;;5058502;28;20536;-64
2022/03/05 10:17:53;;;;;;;10.65;7.63;;;15.20;67.10;;;;;;5061430;28;20080;-65
2022/03/05 10:20:21;;;;;;;12.05;8.55;;;15.50;66.60;;;;;;5071377;28;20056;-64
2022/03/05 10:22:56;;;;;;;11.88;8.25;;;15.30;68.20;;;;;;5064338;28;20072;-65
2022/03/05 10:25:35;;;;;;;11.52;8.88;;;16.20;66.70;;;;;;5063830;28;20128;-65
2022/03/05 10:28:05;;;;;;;16.08;8.75;;;17.00;64.20;;;;;;5067012;28;20131;-65
2022/03/05 10:30:34;;;;;;;11.85;8.77;;;17.10;65.00;;;;;;5071072;28;20433;-66
2022/03/05 10:33:02;;;;;;;17.05;8.40;;;17.30;63.30;;;;;;5054935;28;20091;-64
2022/03/05 10:35:29;;;;;;;11.52;8.40;;;16.90;65.60;;;;;;5054112;28;20478;-64
2022/03/05 10:37:56;;;;;;;12.02;8.63;;;17.00;63.60;;;;;;5052094;28;20128;-65
2022/03/05 10:40:27;;;;;;;12.93;8.27;;;16.30;63.10;;;;;;5066342;28;20086;-65
2022/03/05 10:42:54;;;;;;;15.60;9.40;;;16.30;63.00;;;;;;5059951;28;20084;-66
2022/03/05 10:45:22;;;;;;;13.88;9.07;;;16.10;62.50;;;;;;5052920;28;20516;-67
2022/03/05 10:47:51;;;;;;;14.23;9.45;;;16.20;61.90;;;;;;5051128;28;20056;-64
2022/03/05 10:50:24;;;;;;;12.60;8.88;;;15.90;63.20;;;;;;5054434;28;20389;-65
2022/03/05 10:52:53;;;;;;;14.30;9.10;;;16.20;63.50;;;;;;5068112;28;20136;-65
2022/03/05 10:55:21;;;;;;;10.68;8.27;;;17.20;62.90;;;;;;5051255;28;20389;-65
2022/03/05 10:58:04;;;;;;;10.07;8.13;;;17.40;62.20;;;;;;5052404;28;20049;-65
2022/03/05 11:00:31;;;;;;;12.90;9.10;;;17.40;59.60;;;;;;5066827;28;20486;-65
2022/03/05 11:03:00;;;;;;;12.98;9.73;;;17.20;59.80;;;;;;5054648;28;20084;-65
2022/03/05 11:05:29;;;;;;;13.50;9.63;;;15.80;60.90;;;;;;5054430;28;20073;-65
2022/03/05 11:07:56;;;;;;;15.57;9.50;;;17.40;60.80;;;;;;5050951;28;20076;-64
2022/03/05 11:10:29;;;;;;;15.68;9.40;;;16.70;60.60;;;;;;5064842;28;20061;-66
2022/03/05 11:12:59;;;;;;;16.73;9.02;;;16.70;60.70;;;;;;5066251;28;20044;-64
2022/03/05 11:15:26;;;;;;;16.33;9.13;;;16.60;61.50;;;;;;5051999;28;20140;-66
2022/03/05 11:17:54;;;;;;;13.15;9.55;;;16.70;60.20;;;;;;5063706;28;20144;-64
2022/03/05 11:20:24;;;;;;;13.60;8.95;;;15.80;60.40;;;;;;5059754;28;20467;-65
2022/03/05 11:22:56;;;;;;;14.88;8.85;;;16.10;60.10;;;;;;5050666;28;20132;-66
2022/03/05 11:25:28;;;;;;;14.35;9.93;;;16.80;60.50;;;;;;5051740;28;20461;-65
2022/03/05 11:28:00;;;;;;;14.45;8.90;;;17.00;58.70;;;;;;5055603;28;20049;-65
2022/03/05 11:30:28;;;;;;;14.73;9.57;;;16.20;60.20;;;;;;5053447;28;20248;-65
2022/03/05 11:32:55;;;;;;;13.30;9.20;;;15.70;60.70;;;;;;5069753;28;20131;-65
2022/03/05 11:35:25;;;;;;;13.73;8.57;;;16.80;60.00;;;;;;5065120;28;20588;-66
2022/03/05 11:37:52;;;;;;;16.67;10.63;;;17.80;60.30;;;;;;5051156;28;20497;-65
2022/03/05 11:40:34;;;;;;;13.90;9.80;;;16.90;58.40;;;;;;5050941;28;20088;-64
2022/03/05 11:43:18;;;;;;;16.25;11.43;;;17.60;59.30;;;;;;5051145;28;20148;-65
2022/03/05 11:45:56;;;;;;;14.60;10.75;;;17.80;58.00;;;;;;5067907;28;20135;-64
2022/03/05 11:48:32;;;;;;;19.83;13.13;;;17.80;59.20;;;;;;5070107;28;20057;-65
2022/03/05 11:51:01;;;;;;;23.88;14.35;;;17.80;58.80;;;;;;5062500;28;20526;-66
2022/03/05 11:53:29;;;;;;;20.02;13.63;;;18.00;59.60;;;;;;5071627;28;20415;-66
2022/03/05 11:56:17;;;;;;;19.75;13.57;;;18.30;57.80;;;;;;5051764;28;20140;-65
2022/03/05 11:58:44;;;;;;;15.10;10.73;;;18.60;58.50;;;;;;5050291;28;20408;-66
2022/03/05 12:01:34;;;;;;;13.13;8.98;;;17.30;58.30;;;;;;5051979;28;20057;-65
2022/03/05 12:04:05;;;;;;;17.03;10.03;;;17.00;58.70;;;;;;5054300;28;20052;-64
2022/03/05 12:06:45;;;;;;;15.10;10.50;;;18.00;58.00;;;;;;5058893;28;20060;-64
2022/03/05 12:09:31;;;;;;;16.90;10.47;;;17.40;58.20;;;;;;5064741;28;20499;-63
2022/03/05 12:12:00;;;;;;;18.48;11.60;;;17.30;57.40;;;;;;5057470;28;20128;-64
2022/03/05 12:15:00;;;;;;;16.23;11.37;;;17.40;57.70;;;;;;5067923;28;20492;-65
2022/03/05 12:17:32;;;;;;;16.08;11.32;;;18.60;56.90;;;;;;5050495;28;20160;-65
2022/03/05 12:19:59;;;;;;;14.30;10.98;;;18.10;56.10;;;;;;5079075;28;20088;-65
2022/03/05 12:22:26;;;;;;;16.45;12.05;;;18.40;55.80;;;;;;5049429;28;20546;-66
2022/03/05 12:24:53;;;;;;;13.85;10.90;;;17.50;57.20;;;;;;5063502;28;20088;-65
2022/03/05 12:27:24;;;;;;;14.60;10.13;;;17.90;56.10;;;;;;5068180;28;20107;-65
2022/03/05 12:29:52;;;;;;;14.77;10.10;;;17.70;55.90;;;;;;5071670;28;20128;-65
2022/03/05 12:32:29;;;;;;;12.40;9.63;;;17.40;57.00;;;;;;5052161;28;20127;-64
2022/03/05 12:35:03;;;;;;;14.88;10.65;;;17.60;56.00;;;;;;5050258;28;20081;-64
2022/03/05 12:37:31;;;;;;;13.73;9.88;;;17.90;56.30;;;;;;5049743;28;20057;-65
2022/03/05 12:39:59;;;;;;;12.00;9.50;;;16.70;57.00;;;;;;5049874;28;20068;-65
2022/03/05 12:42:35;;;;;;;14.48;10.48;;;16.60;57.60;;;;;;5062490;28;20099;-65
2022/03/05 12:45:03;;;;;;;15.77;10.95;;;16.60;57.40;;;;;;5069493;28;20135;-65
2022/03/05 12:47:32;;;;;;;15.52;11.85;;;16.90;57.30;;;;;;5059589;28;20519;-65